createdAt,value
2019-01-16T00:00:26.107Z,73.44
2019-01-16T00:02:55.449Z,73.51
2019-01-16T00:05:23.752Z,73.53
2019-01-16T00:07:51.306Z,73.53
2019-01-16T00:10:35.477Z,73.71
2019-01-16T00:13:04.744Z,73.72
2019-01-16T00:15:47.062Z,73.81
2019-01-16T00:18:20.190Z,73.64
2019-01-16T00:21:05.328Z,73.74
2019-01-16T00:26:25.110Z,73.92
2019-01-16T00:28:54.286Z,73.99
2019-01-16T00:31:29.205Z,74.09
2019-01-16T00:33:57.607Z,74.07
2019-01-16T00:36:26.963Z,74.06
2019-01-16T00:39:09.705Z,74.03
2019-01-16T00:41:47.045Z,74.03
2019-01-16T00:44:16.959Z,74.28
2019-01-16T00:49:37.652Z,73.98
2019-01-16T00:52:10.547Z,74.13
2019-01-16T00:54:43.433Z,74.38
2019-01-16T00:57:26.606Z,74.56
2019-01-16T01:00:15.655Z,74.77
2019-01-16T01:02:43.575Z,74.75
2019-01-16T01:05:12.884Z,74.81
2019-01-16T01:07:43.864Z,74.99
2019-01-16T01:10:16.806Z,75.15
2019-01-16T01:13:03.948Z,75.21
2019-01-16T01:15:37.231Z,75.26
2019-01-16T01:18:05.451Z,75.44
2019-01-16T01:20:34.864Z,75.57
2019-01-16T01:23:02.258Z,75.95
2019-01-16T01:25:45.456Z,76.00
2019-01-16T01:28:22.799Z,75.86
2019-01-16T01:30:51.732Z,75.75
2019-01-16T01:33:31.890Z,75.78
2019-01-16T01:36:04.789Z,75.53
2019-01-16T01:38:34.131Z,75.20
2019-01-16T01:41:07.090Z,75.17
2019-01-16T01:43:36.976Z,75.16
2019-01-16T01:46:07.894Z,75.12
2019-01-16T01:48:40.394Z,75.32
2019-01-16T01:51:11.902Z,75.32
2019-01-16T01:53:40.838Z,75.27
2019-01-16T01:59:12.537Z,74.15
2019-01-16T02:01:41.457Z,74.40
2019-01-16T02:04:24.683Z,74.52
2019-01-16T02:06:52.446Z,74.75
2019-01-16T02:09:20.363Z,75.18
2019-01-16T02:11:53.706Z,75.38
2019-01-16T02:14:22.543Z,75.64
2019-01-16T02:16:49.968Z,75.87
2019-01-16T02:19:17.762Z,75.96
2019-01-16T02:21:50.888Z,75.87
2019-01-16T02:24:22.661Z,75.31
2019-01-16T02:26:52.482Z,75.33
2019-01-16T02:29:23.226Z,75.54
2019-01-16T02:31:51.131Z,75.38
2019-01-16T02:37:15.432Z,74.20
2019-01-16T02:39:48.866Z,74.47
2019-01-16T02:42:31.247Z,74.64
2019-01-16T02:45:02.038Z,74.75
2019-01-16T02:47:29.430Z,74.94
2019-01-16T02:50:00.244Z,75.20
2019-01-16T02:52:43.945Z,75.50
2019-01-16T02:55:13.086Z,75.28
2019-01-16T02:57:42.294Z,75.28
2019-01-16T03:00:10.045Z,75.58
2019-01-16T03:02:42.107Z,75.82
2019-01-16T03:05:12.024Z,75.67
2019-01-16T03:07:40.798Z,75.62
2019-01-16T03:10:13.690Z,75.73
2019-01-16T03:12:41.898Z,75.62
2019-01-16T03:15:12.087Z,75.67
2019-01-16T03:17:41.888Z,75.85
2019-01-16T03:20:14.983Z,75.92
2019-01-16T03:22:52.326Z,75.58
2019-01-16T03:28:21.529Z,75.02
2019-01-16T03:30:53.734Z,75.23
2019-01-16T03:33:26.608Z,75.41
2019-01-16T03:35:59.672Z,75.35
2019-01-16T03:38:27.898Z,75.28
2019-01-16T03:41:00.247Z,75.39
2019-01-16T03:43:28.140Z,75.43
2019-01-16T03:46:16.478Z,75.39
2019-01-16T03:48:49.733Z,75.51
2019-01-16T03:51:20.750Z,75.54
2019-01-16T03:53:48.947Z,75.74
2019-01-16T03:56:16.348Z,75.96
2019-01-16T03:58:49.210Z,75.94
2019-01-16T04:01:22.410Z,75.82
2019-01-16T04:04:03.624Z,75.58
2019-01-16T04:06:31.049Z,75.46
2019-01-16T04:08:58.452Z,75.41
2019-01-16T04:11:26.333Z,75.49
2019-01-16T04:13:53.792Z,75.65
2019-01-16T04:19:22.103Z,74.69
2019-01-16T04:22:07.403Z,74.92
2019-01-16T04:24:35.301Z,74.90
2019-01-16T04:27:03.663Z,75.09
2019-01-16T04:29:49.752Z,75.34
2019-01-16T04:32:33.042Z,75.55
2019-01-16T04:35:01.911Z,75.95
2019-01-16T04:37:29.315Z,76.13
2019-01-16T04:40:01.263Z,76.01
2019-01-16T04:42:31.190Z,76.01
2019-01-16T04:45:03.476Z,75.85
2019-01-16T04:47:36.987Z,75.72
2019-01-16T04:50:05.359Z,75.60
2019-01-16T04:52:46.532Z,75.75
2019-01-16T04:55:29.758Z,75.83
2019-01-16T04:57:59.659Z,75.83
2019-01-16T05:00:29.430Z,76.08
2019-01-16T05:03:03.187Z,76.39
2019-01-16T05:05:47.333Z,76.40
2019-01-16T05:08:19.302Z,76.22
2019-01-16T05:10:49.312Z,76.35
2019-01-16T05:13:31.599Z,76.44
2019-01-16T05:16:10.764Z,76.39
2019-01-16T05:21:34.888Z,76.13
2019-01-16T05:24:07.987Z,76.16
2019-01-16T05:26:35.386Z,76.23
2019-01-16T05:29:19.649Z,76.47
2019-01-16T05:31:47.926Z,76.62
2019-01-16T05:34:26.244Z,76.61
2019-01-16T05:36:53.688Z,76.47
2019-01-16T05:39:21.555Z,76.18
2019-01-16T05:41:51.602Z,76.13
2019-01-16T05:47:27.044Z,75.37
2019-01-16T05:49:54.484Z,75.75
2019-01-16T05:52:35.770Z,75.90
2019-01-16T05:55:07.595Z,75.83
2019-01-16T05:57:48.863Z,75.71
2019-01-16T06:00:22.373Z,75.66
2019-01-16T06:02:59.932Z,75.49
2019-01-16T06:05:29.762Z,75.50
2019-01-16T06:07:59.550Z,75.77
2019-01-16T06:10:30.483Z,75.99
2019-01-16T06:12:59.884Z,76.12
2019-01-16T06:15:28.819Z,76.13
2019-01-16T06:18:11.164Z,76.44
2019-01-16T06:20:46.038Z,76.79
2019-01-16T06:23:19.001Z,77.00
2019-01-16T06:25:47.343Z,77.15
2019-01-16T06:28:20.758Z,76.70
2019-01-16T06:30:53.152Z,76.55
2019-01-16T06:33:26.199Z,76.96
2019-01-16T06:35:53.979Z,77.35
2019-01-16T06:41:22.974Z,76.97
2019-01-16T06:43:52.187Z,77.87
2019-01-16T06:46:27.045Z,77.47
2019-01-16T06:52:05.752Z,76.17
2019-01-16T06:54:38.680Z,77.16
2019-01-16T06:57:16.210Z,77.33
2019-01-16T06:59:43.717Z,77.42
2019-01-16T07:02:16.768Z,77.68
2019-01-16T07:04:50.479Z,77.06
2019-01-16T07:07:21.250Z,76.67
2019-01-16T07:10:05.294Z,76.53
2019-01-16T07:12:47.575Z,76.39
2019-01-16T07:15:31.839Z,76.22
2019-01-16T07:18:04.832Z,76.21
2019-01-16T07:20:33.663Z,76.13
2019-01-16T07:23:02.739Z,76.12
2019-01-16T07:25:36.875Z,75.71
2019-01-16T07:28:04.293Z,75.63
2019-01-16T07:30:37.097Z,75.69
2019-01-16T07:33:08.077Z,75.39
2019-01-16T07:35:41.250Z,75.12
2019-01-16T07:38:24.347Z,75.23
2019-01-16T07:40:56.296Z,74.95
2019-01-16T07:43:24.552Z,74.89
2019-01-16T07:45:55.586Z,74.85
2019-01-16T07:48:44.415Z,74.58
2019-01-16T07:51:14.856Z,73.91
2019-01-16T07:53:45.824Z,73.81
2019-01-16T07:56:15.651Z,73.96
2019-01-16T07:58:43.903Z,73.81
2019-01-16T08:01:13.768Z,73.38
2019-01-16T08:03:47.667Z,73.19
2019-01-16T08:06:16.143Z,72.94
2019-01-16T08:08:45.659Z,72.90
2019-01-16T08:11:14.129Z,72.69
2019-01-16T08:13:44.493Z,72.48
2019-01-16T08:16:17.541Z,72.32
2019-01-16T08:18:48.782Z,72.12
2019-01-16T08:21:34.080Z,71.44
2019-01-16T08:24:08.068Z,71.23
2019-01-16T08:26:39.571Z,70.63
2019-01-16T08:29:24.992Z,69.19
2019-01-16T08:31:53.349Z,67.84
2019-01-16T08:34:26.353Z,66.05
2019-01-16T08:36:59.417Z,63.92
2019-01-16T08:39:32.471Z,61.49
2019-01-16T08:42:09.842Z,59.76
2019-01-16T08:44:41.861Z,58.17
2019-01-16T08:47:14.960Z,56.17
2019-01-16T08:49:53.200Z,53.94
2019-01-16T08:52:27.216Z,52.92
2019-01-16T08:57:54.511Z,47.31
2019-01-16T09:00:24.617Z,48.28
2019-01-16T09:02:57.915Z,47.58
2019-01-16T09:08:24.551Z,42.39
2019-01-16T09:10:53.946Z,44.13
2019-01-16T09:13:27.140Z,46.71
2019-01-16T09:15:58.506Z,47.22
2019-01-16T09:18:26.745Z,47.05
2019-01-16T09:20:57.562Z,47.13
2019-01-16T09:23:27.050Z,47.80
2019-01-16T09:25:59.789Z,47.66
2019-01-16T09:28:27.266Z,46.51
2019-01-16T09:31:11.037Z,46.78
2019-01-16T09:33:40.654Z,45.84
2019-01-16T09:39:06.091Z,39.19
2019-01-16T09:41:48.434Z,39.97
2019-01-16T09:44:18.815Z,39.09
2019-01-16T09:47:00.137Z,38.71
2019-01-16T09:49:43.471Z,39.04
2019-01-16T09:52:17.941Z,39.18
2019-01-16T09:54:50.915Z,38.29
2019-01-16T09:57:33.806Z,37.66
2019-01-16T10:00:17.827Z,37.26
2019-01-16T10:02:45.268Z,36.40
2019-01-16T10:05:17.573Z,35.29
2019-01-16T10:07:49.496Z,34.97
2019-01-16T10:10:20.363Z,34.48
2019-01-16T10:12:47.803Z,33.49
2019-01-16T10:15:21.131Z,33.80
2019-01-16T10:17:48.540Z,33.84
2019-01-16T10:20:22.161Z,33.62
2019-01-16T10:22:50.176Z,33.45
2019-01-16T10:25:17.585Z,33.13
2019-01-16T10:28:00.804Z,32.74
2019-01-16T10:30:33.772Z,33.40
2019-01-16T10:33:07.093Z,34.27
2019-01-16T10:35:34.072Z,33.89
2019-01-16T10:38:01.844Z,33.60
2019-01-16T10:40:33.300Z,33.38
2019-01-16T10:43:12.969Z,33.44
2019-01-16T10:45:52.089Z,36.93
2019-01-16T10:48:19.730Z,39.35
2019-01-16T10:51:03.259Z,38.37
2019-01-16T10:53:29.238Z,36.77
2019-01-16T10:56:12.033Z,35.92
2019-01-16T10:58:50.756Z,35.75
2019-01-16T11:01:32.738Z,35.17
2019-01-16T11:04:20.853Z,34.99
2019-01-16T11:06:52.464Z,34.45
2019-01-16T11:09:34.332Z,34.60
2019-01-16T11:12:07.092Z,34.69
2019-01-16T11:14:37.615Z,34.94
2019-01-16T11:17:10.477Z,34.04
2019-01-16T11:19:53.814Z,33.01
2019-01-16T11:22:25.311Z,32.14
2019-01-16T11:25:12.022Z,32.92
2019-01-16T11:27:56.023Z,33.29
2019-01-16T11:30:37.963Z,33.28
2019-01-16T11:33:05.960Z,34.07
2019-01-16T11:35:38.643Z,33.15
2019-01-16T11:38:22.403Z,31.79
2019-01-16T11:40:50.889Z,30.20
2019-01-16T11:43:17.691Z,29.28
2019-01-16T11:45:46.833Z,28.88
2019-01-16T11:48:28.733Z,28.33
2019-01-16T11:51:18.753Z,28.42
2019-01-16T11:53:56.446Z,27.54
2019-01-16T11:56:33.320Z,27.05
2019-01-16T11:59:03.757Z,27.04
2019-01-16T12:01:50.300Z,27.10
2019-01-16T12:04:19.711Z,26.95
2019-01-16T12:06:56.623Z,28.68
2019-01-16T12:09:27.596Z,28.77
2019-01-16T12:11:58.347Z,28.10
2019-01-16T12:14:27.096Z,27.87
2019-01-16T12:17:12.117Z,27.63
2019-01-16T12:19:41.653Z,26.62
2019-01-16T12:22:10.314Z,26.47
2019-01-16T12:24:38.510Z,26.94
2019-01-16T12:27:23.806Z,27.17
2019-01-16T12:29:56.940Z,26.42
2019-01-16T12:32:26.387Z,26.68
2019-01-16T12:34:55.706Z,25.79
2019-01-16T12:37:23.118Z,25.02
2019-01-16T12:40:06.477Z,24.58
2019-01-16T12:42:35.123Z,23.79
2019-01-16T12:48:01.316Z,22.42
2019-01-16T12:50:48.553Z,24.07
2019-01-16T12:53:15.625Z,26.13
2019-01-16T12:55:48.484Z,25.58
2019-01-16T13:00:57.427Z,24.31
2019-01-16T13:03:43.269Z,25.35
2019-01-16T13:06:28.304Z,26.11
2019-01-16T13:09:14.145Z,27.00
2019-01-16T13:11:44.120Z,26.87
2019-01-16T13:14:11.932Z,27.45
2019-01-16T13:19:49.541Z,29.02
2019-01-16T13:22:32.304Z,30.74
2019-01-16T13:25:15.906Z,33.74
2019-01-16T13:27:44.693Z,36.29
2019-01-16T13:30:17.944Z,38.11
2019-01-16T13:32:50.591Z,39.45
2019-01-16T13:35:23.155Z,40.31
2019-01-16T13:37:50.973Z,41.15
2019-01-16T13:40:23.578Z,41.68
2019-01-16T13:43:05.889Z,41.78
2019-01-16T13:45:33.301Z,40.72
2019-01-16T13:48:17.395Z,38.94
2019-01-16T13:50:44.970Z,32.19
2019-01-16T13:53:22.310Z,29.13
2019-01-16T13:55:55.339Z,27.78
2019-01-16T13:58:24.842Z,30.27
2019-01-16T14:00:55.677Z,33.35
2019-01-16T14:03:27.487Z,35.61
2019-01-16T14:05:56.309Z,36.97
2019-01-16T14:08:24.228Z,37.22
2019-01-16T14:10:52.069Z,37.94
2019-01-16T14:13:21.105Z,38.53
2019-01-16T14:15:57.974Z,38.08
2019-01-16T14:18:30.582Z,34.32
2019-01-16T14:20:59.404Z,31.46
2019-01-16T14:23:29.815Z,27.98
2019-01-16T14:26:07.152Z,25.22
2019-01-16T14:28:40.285Z,23.27
2019-01-16T14:31:08.155Z,22.66
2019-01-16T14:33:41.215Z,22.44
2019-01-16T14:36:11.123Z,21.28
2019-01-16T14:38:41.132Z,19.97
2019-01-16T14:41:15.944Z,20.34
2019-01-16T14:46:54.935Z,23.57
2019-01-16T14:49:22.888Z,27.50
2019-01-16T14:51:52.677Z,31.59
2019-01-16T14:54:33.909Z,34.53
2019-01-16T14:57:06.792Z,36.46
2019-01-16T14:59:49.887Z,37.70
2019-01-16T15:02:39.887Z,38.60
2019-01-16T15:05:08.282Z,39.92
2019-01-16T15:07:36.015Z,40.24
2019-01-16T15:10:03.426Z,40.64
2019-01-16T15:15:24.945Z,42.00
2019-01-16T15:18:07.102Z,41.85
2019-01-16T15:20:36.483Z,42.66
2019-01-16T15:23:06.328Z,42.68
2019-01-16T15:25:40.320Z,42.73
2019-01-16T15:28:12.467Z,42.98
2019-01-16T15:30:42.161Z,43.17
2019-01-16T15:33:26.415Z,43.35
2019-01-16T15:35:59.333Z,43.70
2019-01-16T15:38:30.562Z,44.04
2019-01-16T15:40:58.591Z,44.71
2019-01-16T15:46:20.503Z,45.17
2019-01-16T15:48:58.621Z,45.05
2019-01-16T15:51:31.631Z,45.33
2019-01-16T15:53:59.070Z,45.80
2019-01-16T15:56:26.965Z,46.08
2019-01-16T15:59:00.132Z,46.54
2019-01-16T16:04:22.792Z,47.01
2019-01-16T16:06:51.188Z,47.32
2019-01-16T16:09:21.732Z,47.52
2019-01-16T16:11:52.989Z,48.00
2019-01-16T16:14:20.452Z,48.42
2019-01-16T16:16:50.313Z,48.62
2019-01-16T16:19:23.490Z,48.92
2019-01-16T16:21:51.947Z,49.38
2019-01-16T16:24:19.840Z,49.56
2019-01-16T16:26:53.167Z,49.66
2019-01-16T16:29:24.971Z,49.93
2019-01-16T16:31:58.050Z,50.35
2019-01-16T16:34:31.051Z,50.66
2019-01-16T16:37:04.050Z,51.04
2019-01-16T16:39:32.923Z,50.90
2019-01-16T16:44:56.101Z,51.16
2019-01-16T16:47:38.410Z,51.04
2019-01-16T16:50:06.223Z,51.23
2019-01-16T16:52:54.529Z,52.02
2019-01-16T16:55:27.823Z,52.79
2019-01-16T16:58:01.302Z,52.57
2019-01-16T17:00:30.586Z,52.43
2019-01-16T17:05:55.122Z,52.71
2019-01-16T17:11:19.652Z,52.83
2019-01-16T17:13:52.666Z,52.89
2019-01-16T17:19:19.800Z,53.73
2019-01-16T17:21:47.207Z,53.57
2019-01-16T17:24:33.350Z,53.70
2019-01-16T17:27:01.433Z,54.03
2019-01-16T17:29:38.988Z,54.20
2019-01-16T17:35:01.967Z,54.78
2019-01-16T17:37:30.309Z,54.78
2019-01-16T17:40:01.170Z,55.21
2019-01-16T17:42:44.409Z,55.68
2019-01-16T17:45:17.350Z,56.00
2019-01-16T17:47:56.557Z,56.13
2019-01-16T17:50:29.570Z,56.47
2019-01-16T17:53:02.636Z,56.83
2019-01-16T17:55:32.345Z,57.38
2019-01-16T17:58:12.710Z,57.42
2019-01-16T18:00:46.671Z,57.62
2019-01-16T18:06:09.200Z,57.99
2019-01-16T18:08:38.729Z,58.18
2019-01-16T18:11:07.531Z,58.31
2019-01-16T18:13:35.879Z,58.51
2019-01-16T18:16:20.133Z,58.74
2019-01-16T18:18:49.971Z,59.00
2019-01-16T18:21:18.936Z,59.21
2019-01-16T18:23:52.010Z,59.49
2019-01-16T18:26:31.291Z,59.48
2019-01-16T18:28:59.382Z,59.71
2019-01-16T18:31:28.329Z,59.97
2019-01-16T18:34:10.637Z,60.36
2019-01-16T18:36:39.474Z,60.78
2019-01-16T18:42:17.004Z,60.88
2019-01-16T18:45:03.251Z,60.84
2019-01-16T18:47:34.503Z,61.07
2019-01-16T18:50:04.903Z,61.58
2019-01-16T18:52:35.850Z,61.94
2019-01-16T18:55:05.212Z,62.23
2019-01-16T18:57:38.682Z,62.34
2019-01-16T19:00:13.045Z,62.41
2019-01-16T19:02:40.792Z,62.59
2019-01-16T19:05:08.333Z,62.69
2019-01-16T19:10:31.566Z,62.62
2019-01-16T19:13:01.499Z,62.52
2019-01-16T19:15:30.312Z,62.71
2019-01-16T19:18:08.824Z,62.78
2019-01-16T19:20:46.208Z,63.06
2019-01-16T19:23:15.249Z,63.23
2019-01-16T19:28:38.720Z,62.80
2019-01-16T19:31:11.803Z,62.77
2019-01-16T19:33:41.665Z,63.19
2019-01-16T19:36:21.911Z,63.43
2019-01-16T19:38:54.297Z,63.60
2019-01-16T19:41:40.171Z,64.04
2019-01-16T19:44:12.785Z,64.01
2019-01-16T19:46:44.085Z,64.12
2019-01-16T19:49:14.820Z,64.09
2019-01-16T19:54:42.081Z,64.19
2019-01-16T19:57:14.350Z,64.16
2019-01-16T19:59:48.267Z,64.45
2019-01-16T20:02:34.565Z,65.03
2019-01-16T20:05:19.817Z,65.23
2019-01-16T20:07:47.209Z,65.30
2019-01-16T20:10:14.776Z,65.28
2019-01-16T20:12:46.964Z,65.31
2019-01-16T20:15:24.342Z,65.36
2019-01-16T20:21:01.292Z,65.21
2019-01-16T20:23:46.577Z,65.12
2019-01-16T20:26:16.506Z,65.20
2019-01-16T20:28:58.807Z,65.56
2019-01-16T20:31:27.178Z,65.80
2019-01-16T20:33:58.190Z,66.02
2019-01-16T20:36:29.031Z,66.23
2019-01-16T20:39:01.230Z,66.43
2019-01-16T20:41:31.042Z,66.52
2019-01-16T20:44:02.938Z,66.91
2019-01-16T20:46:32.006Z,67.00
2019-01-16T20:49:10.257Z,66.96
2019-01-16T20:51:43.246Z,67.08
2019-01-16T20:54:16.370Z,67.27
2019-01-16T20:56:43.796Z,67.05
2019-01-16T21:02:07.070Z,66.51
2019-01-16T21:04:39.160Z,66.48
2019-01-16T21:09:58.772Z,65.86
2019-01-16T21:12:27.997Z,65.95
2019-01-16T21:14:57.799Z,66.48
2019-01-16T21:17:35.179Z,66.72
2019-01-16T21:20:12.655Z,66.95
2019-01-16T21:22:51.031Z,66.91
2019-01-16T21:25:18.433Z,67.15
2019-01-16T21:27:51.426Z,67.25
2019-01-16T21:30:37.738Z,67.36
2019-01-16T21:33:10.603Z,67.59
2019-01-16T21:35:38.055Z,67.53
2019-01-16T21:38:07.215Z,67.72
2019-01-16T21:40:50.504Z,68.02
2019-01-16T21:43:32.789Z,67.84
2019-01-16T21:46:10.342Z,67.72
2019-01-16T21:48:40.289Z,67.72
2019-01-16T21:51:08.223Z,67.86
2019-01-16T21:53:53.519Z,67.93
2019-01-16T21:59:16.769Z,67.71
2019-01-16T22:02:00.009Z,67.84
2019-01-16T22:04:29.232Z,68.04
2019-01-16T22:06:57.617Z,68.19
2019-01-16T22:09:30.700Z,68.17
2019-01-16T22:12:04.450Z,68.04
2019-01-16T22:14:34.900Z,67.97
2019-01-16T22:20:11.349Z,66.83
2019-01-16T22:22:43.330Z,66.64
2019-01-16T22:25:16.286Z,66.77
2019-01-16T22:27:49.147Z,66.81
2019-01-16T22:30:17.563Z,66.82
2019-01-16T22:32:46.507Z,66.77
2019-01-16T22:35:33.676Z,66.81
2019-01-16T22:38:04.923Z,66.76
2019-01-16T22:40:34.304Z,66.71
2019-01-16T22:43:07.359Z,66.62
2019-01-16T22:45:35.618Z,66.70
2019-01-16T22:48:07.805Z,66.73
2019-01-16T22:50:35.683Z,66.62
2019-01-16T22:53:06.037Z,66.54
2019-01-16T22:55:48.358Z,66.57
2019-01-16T22:58:18.004Z,66.45
2019-01-16T23:00:50.948Z,66.46
2019-01-16T23:03:33.251Z,66.53
2019-01-16T23:06:03.098Z,66.34
2019-01-16T23:08:32.878Z,66.15
2019-01-16T23:11:02.682Z,65.71
2019-01-16T23:13:35.747Z,65.50
2019-01-16T23:16:04.074Z,65.29
2019-01-16T23:21:28.500Z,63.27
2019-01-16T23:23:56.255Z,63.12
2019-01-16T23:26:28.591Z,63.23
2019-01-16T23:28:56.354Z,63.44
2019-01-16T23:31:27.921Z,63.66
2019-01-16T23:34:11.160Z,63.75
2019-01-16T23:36:44.275Z,63.86
2019-01-16T23:39:28.573Z,64.08
2019-01-16T23:42:07.973Z,64.31
2019-01-16T23:47:41.385Z,64.18
2019-01-16T23:50:28.459Z,64.25
2019-01-16T23:53:14.577Z,64.74
2019-01-16T23:55:57.978Z,64.80
2019-01-16T23:58:30.929Z,64.92
